Time;durP1;ratioP1;P1;durP2;ratioP2;P2;SDS_P1;SDS_P2;PMS_P1;PMS_P2;Temp;Humidity;BMP_temperature;BMP_pressure;BME280_temperature;BME280_humidity;BME280_pressure;Samples;Min_cycle;Max_cycle;Signal;HPM_P1;HPM_P2
2023/03/02 00:01:59;;;;;;;0.30;0.30;;;;;;;17.90;38.19;101954.91;5128040;28;20047;-48
2023/03/02 00:04:29;;;;;;;0.30;0.30;;;;;;;17.89;38.13;101956.81;5113710;28;20192;-48
2023/03/02 00:06:59;;;;;;;0.30;0.30;;;;;;;17.89;38.12;101958.75;5111074;28;20055;-49
2023/03/02 00:09:25;;;;;;;0.30;0.30;;;;;;;17.89;38.12;101958.75;5128689;28;20051;-49
2023/03/02 00:11:50;;;;;;;0.30;0.30;;;;;;;17.89;38.04;101956.00;5127625;27;20379;-48
2023/03/02 00:14:16;;;;;;;0.30;0.30;;;;;;;17.89;38.11;101945.81;5113283;28;20051;-51
2023/03/02 00:16:42;;;;;;;0.30;0.30;;;;;;;17.89;37.72;101948.56;5129929;28;20480;-48
2023/03/02 00:19:07;;;;;;;0.30;0.30;;;;;;;17.87;38.01;101953.47;5129852;28;20406;-49
2023/03/02 00:21:33;;;;;;;0.30;0.30;;;;;;;17.89;38.04;101944.97;5132503;27;20417;-49
2023/03/02 00:23:59;;;;;;;0.30;0.30;;;;;;;17.89;38.13;101947.72;5113273;28;20135;-48
2023/03/02 00:26:25;;;;;;;0.30;0.30;;;;;;;17.87;38.12;101949.88;5138819;27;20058;-48
2023/03/02 00:28:50;;;;;;;0.30;0.30;;;;;;;17.87;38.09;101942.44;5128427;27;20035;-48
2023/03/02 00:31:16;;;;;;;0.30;0.30;;;;;;;17.88;37.99;101946.91;5127292;27;20103;-48
2023/03/02 00:33:42;;;;;;;0.30;0.30;;;;;;;17.87;38.05;101942.44;5131134;27;20426;-48
2023/03/02 00:36:23;;;;;;;0.30;0.30;;;;;;;17.87;37.96;101950.72;5127158;28;20483;-49
2023/03/02 00:38:51;;;;;;;0.30;0.30;;;;;;;17.88;37.97;101946.91;5108925;28;20043;-48
2023/03/02 00:41:17;;;;;;;0.30;0.30;;;;;;;17.88;38.03;101943.31;5094851;28;20051;-48
2023/03/02 00:43:43;;;;;;;0.30;0.30;;;;;;;17.87;38.04;101945.19;5129514;27;20398;-48
2023/03/02 00:46:11;;;;;;;0.30;0.30;;;;;;;17.87;38.04;101942.44;5148571;27;20069;-47
2023/03/02 00:48:36;;;;;;;0.30;0.30;;;;;;;17.87;37.89;101945.19;5130826;27;20047;-48
2023/03/02 00:51:02;;;;;;;0.30;0.30;;;;;;;17.87;37.87;101936.09;5148312;27;20531;-50
2023/03/02 00:53:28;;;;;;;0.30;0.30;;;;;;;17.87;37.97;101944.38;5138466;27;20054;-48
2023/03/02 00:55:54;;;;;;;0.30;0.30;;;;;;;17.87;38.16;101942.44;5149689;27;20054;-48
2023/03/02 00:58:20;;;;;;;0.30;0.30;;;;;;;17.88;38.10;101935.03;5127612;27;20047;-48
2023/03/02 01:00:46;;;;;;;0.30;0.30;;;;;;;17.87;38.08;101939.69;5112207;28;20047;-48
2023/03/02 01:03:11;;;;;;;0.30;0.30;;;;;;;17.86;38.04;101928.91;5127636;27;20101;-49
2023/03/02 01:05:37;;;;;;;0.30;0.30;;;;;;;17.87;37.98;101933.34;5149403;27;20054;-48
2023/03/02 01:08:03;;;;;;;0.30;0.30;;;;;;;17.87;37.97;101930.59;5139966;27;20039;-48
2023/03/02 01:10:31;;;;;;;0.30;0.30;;;;;;;17.87;38.05;101930.59;5127668;28;20043;-49
2023/03/02 01:12:56;;;;;;;0.20;0.20;;;;;;;17.86;38.27;101918.72;5105333;28;20044;-47
2023/03/02 01:15:22;;;;;;;0.30;0.30;;;;;;;17.87;37.89;101922.31;5125995;27;20313;-48
2023/03/02 01:17:48;;;;;;;0.40;0.40;;;;;;;17.86;38.02;101918.72;5128637;28;20535;-48
2023/03/02 01:20:14;;;;;;;0.30;0.30;;;;;;;17.86;38.16;101921.50;5127661;27;20043;-48
2023/03/02 01:22:41;;;;;;;0.30;0.30;;;;;;;17.86;38.26;101921.50;5122799;27;20120;-48
2023/03/02 01:25:07;;;;;;;0.30;0.30;;;;;;;17.86;37.81;101915.97;5142140;27;20430;-49
2023/03/02 01:27:32;;;;;;;0.30;0.30;;;;;;;17.86;38.01;101915.16;5149186;27;20053;-49
2023/03/02 01:29:58;;;;;;;0.40;0.40;;;;;;;17.86;38.04;101912.38;5130387;27;20046;-49
2023/03/02 01:32:24;;;;;;;0.30;0.30;;;;;;;17.86;38.05;101912.38;5125858;28;20043;-48
2023/03/02 01:34:49;;;;;;;0.30;0.30;;;;;;;17.86;38.07;101912.38;5126363;28;20055;-48
2023/03/02 01:37:15;;;;;;;0.30;0.30;;;;;;;17.85;38.27;101914.31;5149143;27;20050;-49
2023/03/02 01:39:41;;;;;;;0.30;0.30;;;;;;;17.85;37.92;101903.28;5126748;27;20043;-49
2023/03/02 01:42:06;;;;;;;0.40;0.40;;;;;;;17.85;37.96;101896.94;5127053;28;20039;-50
2023/03/02 01:44:39;;;;;;;0.30;0.30;;;;;;;17.85;38.02;101888.69;5124443;28;20043;-48
2023/03/02 01:47:30;;;;;;;0.38;0.38;;;;;;;17.85;37.99;101889.50;5146631;27;20055;-50
2023/03/02 01:50:17;;;;;;;0.30;0.30;;;;;;;17.85;38.01;101888.69;5117085;27;20050;-49
2023/03/02 01:52:43;;;;;;;0.20;0.20;;;;;;;17.85;38.08;101891.44;5128074;27;20123;-51
2023/03/02 01:55:11;;;;;;;0.30;0.30;;;;;;;17.86;37.96;101890.34;5143823;27;20046;-48
2023/03/02 01:57:42;;;;;;;0.30;0.30;;;;;;;17.84;38.08;101887.03;5110971;28;20498;-48
2023/03/02 02:00:11;;;;;;;0.30;0.30;;;;;;;17.85;38.06;101885.94;5105087;28;20074;-47
2023/03/02 02:02:40;;;;;;;0.30;0.30;;;;;;;17.85;38.18;101894.19;5098611;28;20039;-48
2023/03/02 02:05:09;;;;;;;0.22;0.22;;;;;;;17.85;38.10;101886.75;5142736;27;20042;-48
2023/03/02 02:07:35;;;;;;;;;;;;;;;17.84;38.08;101893.34;5130208;27;20066;-49
2023/03/02 02:10:01;;;;;;;0.30;0.30;;;;;;;17.85;38.03;101888.69;5136841;27;19926;-48
2023/03/02 02:12:27;;;;;;;0.40;0.40;;;;;;;17.83;38.02;101886.16;5126838;28;20043;-49
2023/03/02 02:14:53;;;;;;;0.30;0.30;;;;;;;17.84;38.09;101887.84;5139344;27;20414;-48
2023/03/02 02:17:19;;;;;;;0.30;0.30;;;;;;;17.85;38.14;101877.66;5127431;27;20043;-49
2023/03/02 02:19:55;;;;;;;0.30;0.30;;;;;;;17.84;38.10;101889.78;5125028;27;20058;-49
2023/03/02 02:23:00;;;;;;;0.30;0.30;;;;;;;17.83;38.21;101886.16;5126193;27;20080;-49
2023/03/02 02:28:29;;;;;;;0.30;0.30;;;;;;;17.84;38.06;101881.50;5184358;27;20655;-46
2023/03/02 02:31:06;;;;;;;0.40;0.40;;;;;;;17.83;38.05;101890.84;5144245;27;20059;-47
2023/03/02 02:33:32;;;;;;;0.30;0.30;;;;;;;17.82;37.99;101876.22;5142119;27;20049;-47
2023/03/02 02:36:03;;;;;;;0.30;0.30;;;;;;;17.83;38.06;101886.16;5160921;27;20080;-48
2023/03/02 02:38:29;;;;;;;0.30;0.30;;;;;;;17.82;38.13;101876.22;5162455;27;20050;-49
2023/03/02 02:40:57;;;;;;;0.30;0.30;;;;;;;17.83;37.99;101874.31;5164518;27;20475;-46
2023/03/02 02:43:23;;;;;;;0.30;0.30;;;;;;;17.83;38.18;101875.13;5162876;27;20046;-48
2023/03/02 02:45:53;;;;;;;0.30;0.30;;;;;;;17.83;38.01;101871.53;5149166;27;20046;-46
2023/03/02 02:48:22;;;;;;;0.30;0.30;;;;;;;17.83;38.10;101877.88;5161877;27;20050;-46
2023/03/02 02:50:48;;;;;;;0.30;0.30;;;;;;;17.83;38.09;101872.38;5160948;27;20051;-46
2023/03/02 02:53:18;;;;;;;0.30;0.30;;;;;;;17.84;38.06;101873.25;5161336;27;20233;-49
2023/03/02 02:55:46;;;;;;;0.30;0.30;;;;;;;17.83;38.03;101877.06;5123298;27;20055;-46
2023/03/02 02:58:25;;;;;;;0.30;0.30;;;;;;;17.83;38.09;101866.03;5141760;27;20043;-47
2023/03/02 03:00:52;;;;;;;0.30;0.30;;;;;;;17.82;37.98;101867.97;5143644;27;20470;-46
2023/03/02 03:03:29;;;;;;;0.30;0.30;;;;;;;17.82;38.10;101867.97;5130278;27;20058;-46
2023/03/02 03:05:57;;;;;;;0.30;0.30;;;;;;;17.82;38.12;101870.72;5161757;27;20043;-46
2023/03/02 03:08:45;;;;;;;0.30;0.30;;;;;;;17.83;38.16;101869.63;5162575;27;20046;-47
2023/03/02 03:11:12;;;;;;;;;;;;;;;17.83;37.93;101868.78;5146042;27;20096;-46
2023/03/02 03:13:38;;;;;;;0.30;0.30;;;;;;;17.81;37.86;101869.06;5146750;27;19950;-46
2023/03/02 03:16:05;;;;;;;0.25;0.25;;;;;;;17.81;38.10;101860.78;5122215;27;20047;-45
2023/03/02 03:18:31;;;;;;;0.30;0.30;;;;;;;17.80;38.10;101862.72;5155145;27;20074;-46
2023/03/02 03:20:57;;;;;;;0.20;0.20;;;;;;;17.82;38.16;101861.63;5163657;27;20043;-45
2023/03/02 03:23:23;;;;;;;0.28;0.28;;;;;;;17.81;38.27;101863.53;5162445;27;20638;-46
2023/03/02 03:25:48;;;;;;;0.30;0.30;;;;;;;17.82;38.08;101853.34;5127587;27;20246;-47
2023/03/02 03:28:14;;;;;;;0.30;0.30;;;;;;;17.80;38.22;101854.44;5141432;27;20046;-47
2023/03/02 03:30:40;;;;;;;0.30;0.30;;;;;;;17.81;38.03;101855.28;5140023;27;20129;-48
2023/03/02 03:33:09;;;;;;;0.28;0.28;;;;;;;17.81;38.07;101863.53;5139902;27;20406;-46
2023/03/02 03:35:36;;;;;;;0.30;0.30;;;;;;;17.82;38.31;101864.38;5122003;27;20454;-48
2023/03/02 03:38:04;;;;;;;0.30;0.30;;;;;;;17.81;38.03;101858.03;5135928;27;20071;-46
2023/03/02 03:40:33;;;;;;;0.30;0.30;;;;;;;17.81;38.02;101860.78;5127979;28;20431;-47
2023/03/02 03:43:00;;;;;;;0.30;0.30;;;;;;;17.81;37.97;101858.03;5129044;27;20093;-48
2023/03/02 03:45:25;;;;;;;0.30;0.30;;;;;;;17.80;38.11;101856.38;5127537;28;20051;-46
2023/03/02 03:47:51;;;;;;;0.20;0.20;;;;;;;17.81;38.05;101852.50;5126933;28;20142;-47
2023/03/02 03:50:17;;;;;;;0.30;0.30;;;;;;;17.80;38.03;101857.19;5127293;28;20051;-47
2023/03/02 03:52:42;;;;;;;0.30;0.30;;;;;;;17.81;38.20;101858.03;5126282;28;20047;-49
2023/03/02 03:55:09;;;;;;;0.30;0.30;;;;;;;17.79;38.10;101858.28;5126320;28;20050;-45
2023/03/02 03:57:34;;;;;;;0.30;0.30;;;;;;;17.80;38.05;101861.88;5108394;28;20078;-48
2023/03/02 04:00:00;;;;;;;0.30;0.30;;;;;;;17.80;38.00;101859.13;5128771;28;20410;-50
2023/03/02 04:02:26;;;;;;;0.30;0.30;;;;;;;17.80;38.05;101865.47;5128767;28;20055;-50
2023/03/02 04:04:51;;;;;;;0.30;0.30;;;;;;;17.79;37.93;101858.28;5126895;28;20423;-47
2023/03/02 04:07:17;;;;;;;0.30;0.30;;;;;;;17.80;38.19;101859.94;5126142;28;20446;-49
2023/03/02 04:09:43;;;;;;;0.30;0.30;;;;;;;17.80;38.18;101853.59;5127386;28;20142;-47
2023/03/02 04:12:09;;;;;;;0.30;0.30;;;;;;;17.80;38.17;101853.59;5125171;28;20059;-48
2023/03/02 04:14:34;;;;;;;0.30;0.30;;;;;;;17.80;37.97;101856.38;5125826;28;20384;-47
2023/03/02 04:17:04;;;;;;;0.20;0.20;;;;;;;17.79;38.11;101860.22;5107906;28;20055;-48
2023/03/02 04:19:30;;;;;;;0.30;0.30;;;;;;;17.80;38.02;101862.72;5113790;28;20130;-48
2023/03/02 04:21:57;;;;;;;0.30;0.30;;;;;;;17.79;38.08;101858.28;5127275;27;20115;-49
2023/03/02 04:24:23;;;;;;;0.30;0.30;;;;;;;17.79;38.12;101861.03;5109269;28;20040;-49
2023/03/02 04:26:49;;;;;;;0.30;0.30;;;;;;;17.80;38.06;101864.63;5127120;28;20075;-49
2023/03/02 04:29:16;;;;;;;0.30;0.30;;;;;;;17.79;37.89;101865.72;5126604;28;20078;-49
2023/03/02 04:31:42;;;;;;;0.30;0.30;;;;;;;17.78;38.04;101867.63;5123177;28;20050;-48
2023/03/02 04:34:08;;;;;;;0.30;0.30;;;;;;;17.79;38.31;101862.97;5120196;28;20043;-48
2023/03/02 04:36:38;;;;;;;0.30;0.30;;;;;;;17.78;37.95;101862.09;5112524;28;20406;-48
2023/03/02 04:39:06;;;;;;;0.30;0.30;;;;;;;17.79;37.97;101861.03;5110228;28;20502;-46
2023/03/02 04:41:31;;;;;;;0.30;0.30;;;;;;;17.79;38.20;101861.03;5110183;28;20049;-49
2023/03/02 04:43:57;;;;;;;0.30;0.30;;;;;;;17.80;38.12;101859.13;5099169;28;20058;-48
2023/03/02 04:46:25;;;;;;;0.30;0.30;;;;;;;17.78;37.92;101853.84;5128800;28;20051;-49
2023/03/02 04:48:52;;;;;;;0.32;0.32;;;;;;;17.79;38.04;101858.28;5127923;28;20046;-49
2023/03/02 04:51:22;;;;;;;0.30;0.30;;;;;;;17.78;37.96;101851.09;5107568;28;20380;-47
2023/03/02 04:53:50;;;;;;;0.30;0.30;;;;;;;17.78;38.02;101853.00;5102791;28;20051;-48
2023/03/02 04:56:16;;;;;;;0.20;0.20;;;;;;;17.77;38.14;101860.44;5125827;27;20496;-50
2023/03/02 04:58:41;;;;;;;0.30;0.30;;;;;;;17.77;38.15;101848.59;5127095;28;20053;-47
2023/03/02 05:01:09;;;;;;;0.20;0.20;;;;;;;17.78;38.13;101844.75;5128277;28;20069;-48
2023/03/02 05:03:34;;;;;;;0.30;0.30;;;;;;;17.77;37.99;101846.66;5106538;28;20549;-46
2023/03/02 05:06:02;;;;;;;0.30;0.30;;;;;;;17.78;38.13;101851.09;5107765;28;20044;-49
2023/03/02 05:08:28;;;;;;;0.20;0.20;;;;;;;17.79;38.11;101846.44;5122016;28;20062;-49
2023/03/02 05:10:54;;;;;;;0.30;0.30;;;;;;;17.78;38.04;101848.31;5126433;28;20046;-50
2023/03/02 05:13:20;;;;;;;0.30;0.30;;;;;;;17.76;37.98;101842.25;5125804;28;20055;-50
2023/03/02 05:15:45;;;;;;;0.30;0.30;;;;;;;17.77;38.05;101843.06;5117154;28;20046;-48
2023/03/02 05:18:11;;;;;;;0.30;0.30;;;;;;;17.77;37.98;101841.16;5124416;28;20119;-46
2023/03/02 05:20:37;;;;;;;0.30;0.30;;;;;;;17.78;38.11;101844.75;5126292;28;20142;-48
2023/03/02 05:23:06;;;;;;;0.30;0.30;;;;;;;17.78;37.94;101853.00;5118149;28;20488;-49
2023/03/02 05:25:33;;;;;;;0.30;0.30;;;;;;;17.77;38.03;101841.16;5107097;28;20086;-48
2023/03/02 05:28:00;;;;;;;0.30;0.30;;;;;;;17.77;37.94;101846.66;5107838;28;20079;-48
2023/03/02 05:30:25;;;;;;;0.30;0.30;;;;;;;17.77;38.06;101843.91;5125423;28;20047;-50
2023/03/02 05:32:51;;;;;;;0.30;0.30;;;;;;;17.77;38.06;101841.16;5123917;28;20049;-46
2023/03/02 05:35:18;;;;;;;0.30;0.30;;;;;;;17.76;37.94;101845.00;5109885;28;20071;-47
2023/03/02 05:37:44;;;;;;;0.30;0.30;;;;;;;17.77;37.90;101848.59;5113188;28;20043;-49
2023/03/02 05:40:12;;;;;;;0.30;0.30;;;;;;;17.76;38.00;101850.50;5102449;28;20491;-49
2023/03/02 05:42:39;;;;;;;0.30;0.30;;;;;;;17.77;37.84;101843.06;5089054;28;20488;-49
2023/03/02 05:45:06;;;;;;;0.30;0.30;;;;;;;17.77;38.15;101834.81;5074118;28;21402;-48
2023/03/02 05:47:32;;;;;;;0.30;0.30;;;;;;;17.77;38.10;101848.59;5106683;28;20117;-49
2023/03/02 05:49:58;;;;;;;0.30;0.30;;;;;;;17.77;38.16;101848.59;5112380;28;20096;-50
2023/03/02 05:52:24;;;;;;;0.30;0.30;;;;;;;17.77;38.15;101852.19;5118350;27;20047;-48
2023/03/02 05:54:50;;;;;;;0.30;0.30;;;;;;;17.76;38.11;101845.00;5099006;28;20043;-49
2023/03/02 05:57:15;;;;;;;0.30;0.30;;;;;;;17.77;38.04;101848.59;5114028;27;20054;-48
2023/03/02 05:59:41;;;;;;;0.30;0.30;;;;;;;17.77;37.98;101848.59;5125875;28;20043;-49
2023/03/02 06:02:07;;;;;;;0.30;0.30;;;;;;;17.76;38.14;101841.41;5125947;27;20078;-50
2023/03/02 06:04:33;;;;;;;0.30;0.30;;;;;;;17.75;38.11;101840.59;5118342;27;20333;-48
2023/03/02 06:06:58;;;;;;;0.30;0.30;;;;;;;17.76;38.05;101852.44;5119046;27;20035;-49
2023/03/02 06:09:24;;;;;;;0.30;0.30;;;;;;;17.76;38.02;101849.69;5125559;28;20047;-49
2023/03/02 06:11:50;;;;;;;0.30;0.30;;;;;;;17.77;38.10;101854.09;5123958;28;20055;-49
2023/03/02 06:14:15;;;;;;;0.30;0.30;;;;;;;17.76;37.95;101849.69;5120215;28;20368;-48
2023/03/02 06:16:41;;;;;;;0.20;0.20;;;;;;;17.76;37.99;101835.91;5125656;28;20051;-49
2023/03/02 06:19:07;;;;;;;0.30;0.30;;;;;;;17.76;37.99;101852.44;5122744;28;20051;-48
2023/03/02 06:21:33;;;;;;;0.30;0.30;;;;;;;17.76;38.13;101858.78;5125676;28;20047;-49
2023/03/02 06:23:58;;;;;;;0.30;0.30;;;;;;;17.75;38.05;101857.13;5122929;27;20043;-49
2023/03/02 06:26:24;;;;;;;0.30;0.30;;;;;;;17.75;38.07;101854.34;5122075;28;20099;-48
2023/03/02 06:28:50;;;;;;;0.30;0.30;;;;;;;17.75;38.22;101856.28;5111596;28;20487;-48
2023/03/02 06:31:19;;;;;;;0.30;0.30;;;;;;;17.76;38.14;101857.94;5113500;28;20048;-49
2023/03/02 06:33:45;;;;;;;0.30;0.30;;;;;;;17.75;37.95;101859.88;5123500;28;20440;-50
2023/03/02 06:36:11;;;;;;;0.30;0.30;;;;;;;17.76;38.02;101852.44;5106702;28;20404;-47
2023/03/02 06:38:37;;;;;;;0.30;0.30;;;;;;;17.74;38.09;101854.59;5115565;28;20047;-47
2023/03/02 06:41:03;;;;;;;0.30;0.30;;;;;;;17.75;38.06;101854.34;5124824;28;20049;-45
2023/03/02 06:43:28;;;;;;;0.30;0.30;;;;;;;17.74;38.09;101858.16;5121268;27;20074;-49
2023/03/02 06:45:54;;;;;;;0.30;0.30;;;;;;;17.74;38.00;101858.16;5121615;28;20071;-46
2023/03/02 06:48:20;;;;;;;0.30;0.30;;;;;;;17.75;38.08;101856.28;5113732;28;20082;-46
2023/03/02 06:50:46;;;;;;;0.30;0.30;;;;;;;17.74;37.91;101858.16;5115922;28;20073;-46
2023/03/02 06:53:11;;;;;;;0.30;0.30;;;;;;;17.75;38.11;101859.03;5111531;27;20524;-46
2023/03/02 06:55:37;;;;;;;0.30;0.30;;;;;;;17.74;37.96;101863.69;5120671;28;20051;-46
2023/03/02 06:58:02;;;;;;;0.30;0.30;;;;;;;17.74;38.13;101871.94;5118030;28;20051;-47
2023/03/02 07:00:28;;;;;;;0.30;0.30;;;;;;;17.74;37.96;101866.44;5100703;28;20056;-45
2023/03/02 07:02:55;;;;;;;0.30;0.30;;;;;;;17.74;38.06;101869.19;5088031;28;20100;-49
2023/03/02 07:05:22;;;;;;;0.30;0.30;;;;;;;17.74;37.97;101862.84;5073105;28;20057;-47
2023/03/02 07:07:48;;;;;;;0.30;0.30;;;;;;;17.74;38.24;101863.69;5078979;28;20050;-48
2023/03/02 07:10:14;;;;;;;0.30;0.30;;;;;;;17.75;38.14;101864.53;5118523;28;20047;-48
2023/03/02 07:12:40;;;;;;;0.30;0.30;;;;;;;17.74;38.31;101868.34;5116147;27;20415;-49
2023/03/02 07:15:10;;;;;;;0.30;0.30;;;;;;;17.74;38.16;101874.69;5079083;28;20195;-47
2023/03/02 07:17:36;;;;;;;0.30;0.30;;;;;;;17.74;38.01;101869.19;5120298;28;20762;-47
2023/03/02 07:20:04;;;;;;;0.30;0.30;;;;;;;17.74;38.01;101868.34;5097523;28;20042;-50
2023/03/02 07:22:30;;;;;;;0.30;0.30;;;;;;;17.75;37.96;101867.31;5119530;27;20289;-50
2023/03/02 07:24:56;;;;;;;0.38;0.38;;;;;;;17.75;37.90;101867.31;5115731;27;20043;-48
2023/03/02 07:27:21;;;;;;;0.40;0.40;;;;;;;17.74;38.09;101866.44;5111020;27;20047;-50
2023/03/02 07:29:47;;;;;;;0.30;0.30;;;;;;;17.74;38.01;101868.34;5106450;27;20043;-49
2023/03/02 07:32:13;;;;;;;0.30;0.30;;;;;;;17.74;38.08;101865.59;5108051;27;20539;-46
2023/03/02 07:34:39;;;;;;;0.30;0.30;;;;;;;17.74;38.24;101868.34;5113267;27;20485;-50
2023/03/02 07:37:04;;;;;;;0.30;0.30;;;;;;;17.74;38.14;101866.44;5113893;27;20051;-49
2023/03/02 07:39:30;;;;;;;0.40;0.40;;;;;;;17.75;38.07;101861.78;5111626;27;20651;-46
2023/03/02 07:41:58;;;;;;;0.40;0.40;;;;;;;17.74;38.12;101871.13;5103026;27;20372;-46
2023/03/02 07:44:23;;;;;;;0.33;0.33;;;;;;;17.73;38.05;101864.75;5097980;28;20058;-47
2023/03/02 07:46:49;;;;;;;0.40;0.40;;;;;;;17.74;38.06;101873.88;5111813;27;20058;-49
2023/03/02 07:49:15;;;;;;;0.30;0.30;;;;;;;17.73;38.04;101870.25;5107082;27;20324;-53
2023/03/02 07:51:41;;;;;;;0.30;0.30;;;;;;;17.74;38.25;101876.63;5120323;27;20043;-52
2023/03/02 07:54:07;;;;;;;0.30;0.30;;;;;;;17.74;38.16;101882.13;5109493;27;20043;-50
2023/03/02 07:56:33;;;;;;;0.30;0.30;;;;;;;17.72;37.82;101885.13;5104784;27;20104;-48
2023/03/02 07:58:58;;;;;;;0.32;0.32;;;;;;;17.72;37.99;101879.59;5066508;27;20104;-48
2023/03/02 08:01:24;;;;;;;0.30;0.30;;;;;;;17.73;37.93;101880.44;5098017;27;20043;-47
2023/03/02 08:03:50;;;;;;;0.20;0.20;;;;;;;17.74;38.16;101884.88;5074555;28;20039;-48
2023/03/02 08:06:16;;;;;;;0.38;0.38;;;;;;;17.74;38.17;101882.13;5090321;27;20043;-49
2023/03/02 08:08:41;;;;;;;0.32;0.32;;;;;;;17.72;38.14;101882.38;5085414;27;20047;-51
2023/03/02 08:11:11;;;;;;;0.30;0.30;;;;;;;17.74;38.03;101887.66;5091795;27;20712;-49
2023/03/02 08:13:37;;;;;;;0.30;0.30;;;;;;;17.72;37.97;101885.13;5068992;28;20247;-48
2023/03/02 08:16:05;;;;;;;0.20;0.20;;;;;;;17.73;38.15;101886.78;5101637;27;20051;-48
2023/03/02 08:18:31;;;;;;;0.30;0.30;;;;;;;17.71;38.13;101883.44;5105017;28;20334;-50
2023/03/02 08:20:57;;;;;;;0.30;0.30;;;;;;;17.71;38.07;101877.13;5086575;27;20109;-47
2023/03/02 08:23:24;;;;;;;0.30;0.30;;;;;;;17.72;38.05;101885.13;5105309;27;20055;-50
2023/03/02 08:25:51;;;;;;;0.30;0.30;;;;;;;17.70;38.28;101879.03;5091228;28;20402;-47
2023/03/02 08:28:17;;;;;;;0.40;0.40;;;;;;;17.72;38.13;101882.38;5094043;28;20074;-48
2023/03/02 08:30:43;;;;;;;0.30;0.30;;;;;;;17.73;38.12;101880.44;5108578;27;20035;-48
2023/03/02 08:33:08;;;;;;;0.30;0.30;;;;;;;17.73;38.21;101883.19;5105860;28;20056;-48
2023/03/02 08:35:34;;;;;;;0.30;0.30;;;;;;;17.73;38.00;101885.94;5103851;28;20051;-48
2023/03/02 08:38:00;;;;;;;0.30;0.30;;;;;;;17.71;37.99;101880.69;5104612;28;20442;-48
2023/03/02 08:40:25;;;;;;;0.30;0.30;;;;;;;17.73;37.97;101874.94;5112851;27;20689;-48
2023/03/02 08:42:55;;;;;;;0.20;0.20;;;;;;;17.73;38.07;101878.50;5108868;28;20050;-48
2023/03/02 08:45:23;;;;;;;0.30;0.30;;;;;;;17.73;38.07;101878.50;5109822;27;20048;-48
2023/03/02 08:47:48;;;;;;;0.30;0.30;;;;;;;17.72;37.93;101870.50;5091095;28;20039;-48
2023/03/02 08:50:14;;;;;;;0.30;0.30;;;;;;;17.74;38.01;101868.34;5112515;27;20144;-49
2023/03/02 08:52:40;;;;;;;0.30;0.30;;;;;;;17.73;37.99;101866.66;5105446;27;20513;-49
2023/03/02 08:55:06;;;;;;;0.30;0.30;;;;;;;17.73;38.24;101863.91;5105256;27;20051;-48
2023/03/02 08:57:33;;;;;;;0.30;0.30;;;;;;;17.71;37.99;101866.94;5110919;27;20092;-48
2023/03/02 08:59:59;;;;;;;0.38;0.38;;;;;;;17.73;38.14;101872.19;5113617;27;20476;-48
2023/03/02 09:02:25;;;;;;;0.30;0.30;;;;;;;17.72;38.16;101865.84;5109126;28;20051;-48
2023/03/02 09:04:50;;;;;;;0.30;0.30;;;;;;;17.73;38.33;101870.25;5089588;28;20050;-49
2023/03/02 09:07:16;;;;;;;0.30;0.30;;;;;;;17.72;38.06;101865.84;5103809;27;20455;-51
2023/03/02 09:09:42;;;;;;;0.30;0.30;;;;;;;17.72;38.24;101863.06;5086581;28;20116;-49
2023/03/02 09:12:08;;;;;;;0.30;0.30;;;;;;;17.72;38.34;101863.06;5110712;27;20181;-49
2023/03/02 09:14:34;;;;;;;0.30;0.30;;;;;;;17.70;38.20;101859.75;5109900;28;20238;-51
2023/03/02 09:16:59;;;;;;;0.30;0.30;;;;;;;17.71;37.84;101861.41;5098905;28;20404;-50
2023/03/02 09:19:25;;;;;;;0.30;0.30;;;;;;;17.72;37.98;101860.31;5116875;28;20047;-50
2023/03/02 09:21:51;;;;;;;0.30;0.30;;;;;;;17.71;37.98;101846.81;5114171;28;20467;-53
2023/03/02 09:24:17;;;;;;;0.30;0.30;;;;;;;17.70;37.07;101851.47;5113318;28;20051;-51
2023/03/02 09:26:43;;;;;;;0.20;0.20;;;;;;;17.70;35.03;101850.63;5109624;27;20087;-48
2023/03/02 09:29:08;;;;;;;0.30;0.30;;;;;;;17.70;37.45;101847.88;5094168;28;20294;-48
2023/03/02 09:31:35;;;;;;;0.30;0.30;;;;;;;17.70;36.49;101842.34;5109063;27;20115;-48
2023/03/02 09:34:02;;;;;;;0.30;0.30;;;;;;;17.70;36.88;101842.34;5087587;28;20491;-48
2023/03/02 09:36:31;;;;;;;0.30;0.30;;;;;;;17.69;36.36;101840.69;5084569;27;20051;-50
2023/03/02 09:38:56;;;;;;;;;;;;;;;17.69;36.53;101841.53;5103306;28;20148;-48
2023/03/02 09:42:02;;;;;;;0.30;0.30;;;;;;;17.70;38.02;101845.97;5103347;28;20329;-51
2023/03/02 09:44:55;;;;;;;0.30;0.30;;;;;;;17.69;37.82;101840.69;5091424;28;20047;-53
2023/03/02 09:47:30;;;;;;;0.30;0.30;;;;;;;17.69;36.55;101846.19;5091275;28;20091;-50
2023/03/02 09:50:11;;;;;;;0.30;0.30;;;;;;;17.47;33.23;101840.56;5107312;28;20772;-52
2023/03/02 09:52:41;;;;;;;0.30;0.30;;;;;;;17.62;37.04;101840.88;5108952;27;20075;-49
2023/03/02 09:55:18;;;;;;;0.30;0.30;;;;;;;17.66;37.22;101839.28;5096980;28;20449;-49
2023/03/02 09:57:45;;;;;;;0.30;0.30;;;;;;;17.69;37.23;101846.19;5109257;27;20319;-50
2023/03/02 10:00:16;;;;;;;0.30;0.30;;;;;;;17.68;37.42;101837.09;5059019;28;20039;-47
2023/03/02 10:02:49;;;;;;;0.30;0.30;;;;;;;17.70;37.52;101848.72;5118848;27;20540;-49
2023/03/02 10:05:18;;;;;;;0.30;0.30;;;;;;;17.69;36.88;101838.78;5074736;28;20564;-47
2023/03/02 10:07:45;;;;;;;0.30;0.30;;;;;;;17.69;37.78;101844.28;5082785;28;20050;-48
2023/03/02 10:10:48;;;;;;;0.30;0.30;;;;;;;17.70;37.46;101839.59;5106044;27;20139;-49
2023/03/02 10:13:51;;;;;;;0.30;0.30;;;;;;;17.70;37.48;101848.72;5093807;28;20046;-49
2023/03/02 10:16:38;;;;;;;0.30;0.30;;;;;;;17.71;37.55;101846.81;5104323;28;20055;-48
2023/03/02 10:19:09;;;;;;;0.30;0.30;;;;;;;17.71;37.56;101830.28;5101777;27;20488;-49
2023/03/02 10:21:40;;;;;;;0.20;0.20;;;;;;;17.72;37.85;101840.22;5111707;27;20042;-49
2023/03/02 10:24:46;;;;;;;0.40;0.40;;;;;;;17.77;36.59;101848.59;5079517;28;20079;-46
2023/03/02 10:27:39;;;;;;;0.30;0.30;;;;;;;17.78;36.91;101831.78;5097098;27;20064;-48
2023/03/02 10:30:15;;;;;;;0.30;0.30;;;;;;;17.82;37.65;101834.06;5090020;28;20043;-48
2023/03/02 10:32:44;;;;;;;0.30;0.30;;;;;;;17.79;37.80;101827.97;5099686;28;20085;-47
2023/03/02 10:35:21;;;;;;;0.30;0.30;;;;;;;17.79;37.85;101821.63;5085107;27;20071;-48
2023/03/02 10:37:49;;;;;;;0.30;0.30;;;;;;;17.79;37.69;101822.47;5084164;28;20046;-48
2023/03/02 10:40:40;;;;;;;0.30;0.30;;;;;;;17.79;38.02;101819.72;5067853;28;20079;-51
2023/03/02 10:43:13;;;;;;;0.30;0.30;;;;;;;17.79;37.61;101818.88;5090079;28;20242;-47
2023/03/02 10:45:39;;;;;;;0.30;0.30;;;;;;;17.79;37.85;101813.38;5070036;28;20293;-47
2023/03/02 10:48:08;;;;;;;0.30;0.30;;;;;;;17.80;37.84;101820.53;5105986;27;20051;-48
2023/03/02 10:50:34;;;;;;;0.30;0.30;;;;;;;17.79;37.91;101814.19;5081500;28;20047;-52
2023/03/02 10:53:00;;;;;;;0.40;0.40;;;;;;;17.80;37.87;101815.88;5100510;27;20482;-49
2023/03/02 10:55:30;;;;;;;0.32;0.32;;;;;;;17.82;38.01;101806.50;5095390;28;20080;-50
2023/03/02 10:58:00;;;;;;;0.20;0.20;;;;;;;17.83;37.83;101810.94;5116707;27;20095;-48
2023/03/02 11:00:28;;;;;;;0.35;0.35;;;;;;;17.81;38.18;101816.69;5090769;28;20039;-49
2023/03/02 11:02:59;;;;;;;0.30;0.30;;;;;;;17.83;37.96;101813.69;5119418;28;20160;-52
2023/03/02 11:05:30;;;;;;;0.30;0.30;;;;;;;17.83;37.84;101817.25;5118916;27;20040;-48
2023/03/02 11:10:33;;;;;;;0.40;0.40;;;;;;;17.60;35.05;101815.47;5174129;27;20123;-48
2023/03/02 11:13:00;;;;;;;0.35;0.35;;;;;;;17.72;36.43;101812.66;5129430;27;20052;-46
2023/03/02 11:15:35;;;;;;;0.30;0.30;;;;;;;17.77;35.33;101807.25;5128938;27;20407;-49
2023/03/02 11:18:07;;;;;;;0.30;0.30;;;;;;;17.80;36.01;101809.53;5148202;27;20483;-46
2023/03/02 11:20:38;;;;;;;0.40;0.40;;;;;;;17.80;35.36;101796.56;5137544;27;20059;-50
2023/03/02 11:23:12;;;;;;;0.40;0.40;;;;;;;17.82;36.71;101801.00;5134920;27;20363;-49
2023/03/02 11:25:44;;;;;;;0.30;0.30;;;;;;;17.83;37.03;101794.38;5146129;27;20518;-48
2023/03/02 11:28:35;;;;;;;0.30;0.30;;;;;;;17.83;36.47;101797.16;5117056;27;20141;-50
2023/03/02 11:31:05;;;;;;;0.40;0.40;;;;;;;17.83;36.10;101808.16;5109878;27;20046;-50
2023/03/02 11:33:36;;;;;;;0.30;0.30;;;;;;;17.84;35.92;101807.09;5117448;27;20342;-51
2023/03/02 11:36:10;;;;;;;0.30;0.30;;;;;;;17.84;37.31;101796.09;5134943;27;20146;-49
2023/03/02 11:38:51;;;;;;;0.30;0.30;;;;;;;17.84;35.55;101796.91;5138621;27;20043;-50